sensor_id;sensor_type;location;lat;lon;timestamp;pressure;altitude;pressure_sealevel;temperature;humidity
46111;BME280;31849;55.992;37.252;2022-09-04T00:02:58;99672.41;;;7.36;63.45
46111;BME280;31849;55.992;37.252;2022-09-04T00:08:25;99674.22;;;7.42;64.45
46111;BME280;31849;55.992;37.252;2022-09-04T00:13:35;99665.56;;;7.38;64.26
46111;BME280;31849;55.992;37.252;2022-09-04T00:18:47;99675.03;;;7.37;64.12
46111;BME280;31849;55.992;37.252;2022-09-04T00:23:54;99674.13;;;7.34;64.95
46111;BME280;31849;55.992;37.252;2022-09-04T00:29:04;99671.47;;;7.29;64.87
46111;BME280;31849;55.992;37.252;2022-09-04T00:34:19;99675.59;;;7.18;64.78
46111;BME280;31849;55.992;37.252;2022-09-04T00:39:32;99679.59;;;6.97;64.99
46111;BME280;31849;55.992;37.252;2022-09-04T00:44:46;99681.16;;;6.86;65.67
46111;BME280;31849;55.992;37.252;2022-09-04T00:55:35;99677.44;;;6.70;65.85
46111;BME280;31849;55.992;37.252;2022-09-04T01:00:45;99683.34;;;6.61;64.39
46111;BME280;31849;55.992;37.252;2022-09-04T01:06:04;99683.16;;;6.50;66.58
46111;BME280;31849;55.992;37.252;2022-09-04T01:11:14;99681.31;;;6.43;65.74
46111;BME280;31849;55.992;37.252;2022-09-04T01:16:24;99681.84;;;6.25;64.86
46111;BME280;31849;55.992;37.252;2022-09-04T01:21:54;99687.41;;;6.03;66.69
46111;BME280;31849;55.992;37.252;2022-09-04T01:27:04;99681.97;;;5.89;66.86
46111;BME280;31849;55.992;37.252;2022-09-04T01:32:18;99693.94;;;5.85;67.01
46111;BME280;31849;55.992;37.252;2022-09-04T01:37:38;99697.13;;;5.72;67.53
46111;BME280;31849;55.992;37.252;2022-09-04T01:42:50;99697.03;;;5.67;67.21
46111;BME280;31849;55.992;37.252;2022-09-04T01:48:02;99698.06;;;5.77;67.29
46111;BME280;31849;55.992;37.252;2022-09-04T01:53:12;99700.72;;;5.81;66.12
46111;BME280;31849;55.992;37.252;2022-09-04T01:58:29;99702.56;;;5.87;66.83
46111;BME280;31849;55.992;37.252;2022-09-04T02:03:41;99693.09;;;5.86;65.28
46111;BME280;31849;55.992;37.252;2022-09-04T02:08:57;99690.31;;;5.77;66.14
46111;BME280;31849;55.992;37.252;2022-09-04T02:14:15;99699.50;;;5.64;66.43
46111;BME280;31849;55.992;37.252;2022-09-04T02:19:30;99697.91;;;5.69;65.67
46111;BME280;31849;55.992;37.252;2022-09-04T02:24:44;99693.56;;;5.68;64.98
46111;BME280;31849;55.992;37.252;2022-09-04T02:29:57;99693.56;;;5.68;64.75
46111;BME280;31849;55.992;37.252;2022-09-04T02:35:10;99682.28;;;5.61;65.50
46111;BME280;31849;55.992;37.252;2022-09-04T02:40:20;99692.53;;;5.58;65.70
46111;BME280;31849;55.992;37.252;2022-09-04T02:45:33;99688.19;;;5.57;65.34
46111;BME280;31849;55.992;37.252;2022-09-04T02:50:57;99696.59;;;5.49;65.79
46111;BME280;31849;55.992;37.252;2022-09-04T02:56:23;99697.28;;;5.40;65.22
46111;BME280;31849;55.992;37.252;2022-09-04T03:01:34;99696.16;;;5.27;65.12
46111;BME280;31849;55.992;37.252;2022-09-04T03:06:46;99699.22;;;5.12;64.81
46111;BME280;31849;55.992;37.252;2022-09-04T03:11:56;99703.88;;;5.27;64.96
46111;BME280;31849;55.992;37.252;2022-09-04T03:17:09;99700.69;;;5.39;65.28
46111;BME280;31849;55.992;37.252;2022-09-04T03:22:18;99696.59;;;5.49;65.29
46111;BME280;31849;55.992;37.252;2022-09-04T03:27:26;99695.94;;;5.57;64.58
46111;BME280;31849;55.992;37.252;2022-09-04T03:32:42;99703.16;;;5.74;64.29
46111;BME280;31849;55.992;37.252;2022-09-04T03:37:58;99695.50;;;5.78;64.45
46111;BME280;31849;55.992;37.252;2022-09-04T03:43:21;99682.84;;;5.91;64.47
46111;BME280;31849;55.992;37.252;2022-09-04T03:48:50;99667.56;;;5.98;64.54
46111;BME280;31849;55.992;37.252;2022-09-04T03:59:40;99705.69;;;6.58;64.77
46111;BME280;31849;55.992;37.252;2022-09-04T04:05:17;99690.63;;;6.85;64.51
46111;BME280;31849;55.992;37.252;2022-09-04T04:10:28;99697.97;;;7.14;65.42
46111;BME280;31849;55.992;37.252;2022-09-04T04:15:45;99696.44;;;11.72;54.98
46111;BME280;31849;55.992;37.252;2022-09-04T04:21:00;99695.81;;;19.47;37.90
46111;BME280;31849;55.992;37.252;2022-09-04T04:26:09;99695.25;;;23.67;31.56
46111;BME280;31849;55.992;37.252;2022-09-04T04:31:23;99690.59;;;23.88;30.87
46111;BME280;31849;55.992;37.252;2022-09-04T04:36:36;99689.53;;;19.00;37.38
46111;BME280;31849;55.992;37.252;2022-09-04T04:42:03;99694.22;;;15.43;43.87
46111;BME280;31849;55.992;37.252;2022-09-04T04:47:16;99688.13;;;13.64;47.22
46111;BME280;31849;55.992;37.252;2022-09-04T04:52:34;99692.56;;;12.56;49.46
46111;BME280;31849;55.992;37.252;2022-09-04T04:57:51;99690.38;;;16.85;41.27
46111;BME280;31849;55.992;37.252;2022-09-04T05:03:02;99680.47;;;21.99;32.46
46111;BME280;31849;55.992;37.252;2022-09-04T05:08:14;99675.50;;;24.38;29.00
46111;BME280;31849;55.992;37.252;2022-09-04T05:13:29;99689.13;;;29.79;22.51
46111;BME280;31849;55.992;37.252;2022-09-04T05:18:44;99689.00;;;32.78;19.60
46111;BME280;31849;55.992;37.252;2022-09-04T05:23:56;99701.00;;;34.91;17.34
46111;BME280;31849;55.992;37.252;2022-09-04T05:29:05;99696.22;;;36.08;15.94
46111;BME280;31849;55.992;37.252;2022-09-04T05:34:19;99700.97;;;37.64;14.16
46111;BME280;31849;55.992;37.252;2022-09-04T05:39:28;99707.66;;;38.41;13.32
46111;BME280;31849;55.992;37.252;2022-09-04T05:44:45;99705.28;;;38.92;12.86
46111;BME280;31849;55.992;37.252;2022-09-04T05:56:06;99701.59;;;40.36;12.16
46111;BME280;31849;55.992;37.252;2022-09-04T06:01:19;99698.63;;;41.39;12.43
46111;BME280;31849;55.992;37.252;2022-09-04T06:06:32;99702.88;;;41.48;10.60
46111;BME280;31849;55.992;37.252;2022-09-04T06:17:19;99700.06;;;42.05;10.39
46111;BME280;31849;55.992;37.252;2022-09-04T06:22:38;99706.53;;;42.45;9.64
46111;BME280;31849;55.992;37.252;2022-09-04T06:28:25;99709.38;;;42.85;9.66
46111;BME280;31849;55.992;37.252;2022-09-04T06:33:58;99709.88;;;40.86;10.19
46111;BME280;31849;55.992;37.252;2022-09-04T06:39:20;99698.84;;;41.72;9.83
46111;BME280;31849;55.992;37.252;2022-09-04T06:44:38;99701.34;;;42.70;9.01
46111;BME280;31849;55.992;37.252;2022-09-04T06:49:55;99703.50;;;43.35;8.57
46111;BME280;31849;55.992;37.252;2022-09-04T06:55:12;99707.59;;;44.43;8.04
46111;BME280;31849;55.992;37.252;2022-09-04T07:00:19;99703.53;;;44.14;7.78
46111;BME280;31849;55.992;37.252;2022-09-04T07:05:29;99702.00;;;42.99;8.37
46111;BME280;31849;55.992;37.252;2022-09-04T07:10:40;99699.75;;;42.21;8.72
46111;BME280;31849;55.992;37.252;2022-09-04T07:15:56;99691.47;;;42.69;7.98
46111;BME280;31849;55.992;37.252;2022-09-04T07:21:11;99688.13;;;39.68;9.71
46111;BME280;31849;55.992;37.252;2022-09-04T07:26:22;99685.03;;;34.80;12.27
46111;BME280;31849;55.992;37.252;2022-09-04T07:31:32;99670.78;;;34.14;13.51
46111;BME280;31849;55.992;37.252;2022-09-04T07:36:41;99672.38;;;35.77;12.43
46111;BME280;31849;55.992;37.252;2022-09-04T07:41:52;99667.63;;;34.46;12.57
46111;BME280;31849;55.992;37.252;2022-09-04T07:47:06;99670.66;;;36.10;11.49
46111;BME280;31849;55.992;37.252;2022-09-04T07:52:24;99658.41;;;38.21;10.68
46111;BME280;31849;55.992;37.252;2022-09-04T08:03:23;99651.34;;;40.38;8.90
46111;BME280;31849;55.992;37.252;2022-09-04T08:08:51;99661.03;;;37.08;10.46
46111;BME280;31849;55.992;37.252;2022-09-04T08:14:14;99646.34;;;36.19;11.02
46111;BME280;31849;55.992;37.252;2022-09-04T08:19:35;99637.06;;;31.03;13.56
46111;BME280;31849;55.992;37.252;2022-09-04T08:30:18;99635.88;;;25.10;19.36
46111;BME280;31849;55.992;37.252;2022-09-04T08:35:27;99632.31;;;22.83;21.95
46111;BME280;31849;55.992;37.252;2022-09-04T08:46:44;99624.34;;;22.83;21.49
46111;BME280;31849;55.992;37.252;2022-09-04T08:52:14;99611.91;;;22.85;21.48
46111;BME280;31849;55.992;37.252;2022-09-04T08:57:46;99614.81;;;22.44;20.92
46111;BME280;31849;55.992;37.252;2022-09-04T09:14:36;99607.81;;;21.67;23.41
46111;BME280;31849;55.992;37.252;2022-09-04T09:19:58;99608.28;;;20.96;24.01
46111;BME280;31849;55.992;37.252;2022-09-04T09:25:13;99606.50;;;20.09;24.63
46111;BME280;31849;55.992;37.252;2022-09-04T09:30:19;99616.00;;;19.19;25.96
46111;BME280;31849;55.992;37.252;2022-09-04T09:41:19;99603.66;;;19.19;27.15
46111;BME280;31849;55.992;37.252;2022-09-04T09:46:53;99605.59;;;19.39;26.62
46111;BME280;31849;55.992;37.252;2022-09-04T09:52:24;99604.47;;;19.46;26.89
46111;BME280;31849;55.992;37.252;2022-09-04T09:58:02;99613.34;;;19.19;26.81
46111;BME280;31849;55.992;37.252;2022-09-04T10:09:13;99595.28;;;19.33;26.63
46111;BME280;31849;55.992;37.252;2022-09-04T10:14:48;99605.38;;;19.20;26.93
46111;BME280;31849;55.992;37.252;2022-09-04T10:20:15;99604.81;;;18.58;28.47
46111;BME280;31849;55.992;37.252;2022-09-04T10:25:49;99611.06;;;18.29;28.36
46111;BME280;31849;55.992;37.252;2022-09-04T10:31:23;99567.59;;;17.86;28.39
46111;BME280;31849;55.992;37.252;2022-09-04T10:36:38;99602.41;;;17.66;28.34
46111;BME280;31849;55.992;37.252;2022-09-04T10:42:00;99600.00;;;17.58;28.58
46111;BME280;31849;55.992;37.252;2022-09-04T10:47:17;99599.69;;;17.69;29.20
46111;BME280;31849;55.992;37.252;2022-09-04T10:52:57;99592.91;;;17.91;29.27
46111;BME280;31849;55.992;37.252;2022-09-04T10:58:25;99586.91;;;17.86;29.39
46111;BME280;31849;55.992;37.252;2022-09-04T11:03:48;99590.84;;;18.01;29.23
46111;BME280;31849;55.992;37.252;2022-09-04T11:09:20;99577.16;;;17.90;28.45
46111;BME280;31849;55.992;37.252;2022-09-04T11:14:56;99584.25;;;17.86;28.33
46111;BME280;31849;55.992;37.252;2022-09-04T11:20:30;99587.34;;;17.71;28.91
46111;BME280;31849;55.992;37.252;2022-09-04T11:31:33;99587.22;;;17.75;29.19
46111;BME280;31849;55.992;37.252;2022-09-04T11:42:27;99572.09;;;18.12;28.97
46111;BME280;31849;55.992;37.252;2022-09-04T11:47:51;99582.31;;;17.93;29.29
46111;BME280;31849;55.992;37.252;2022-09-04T11:53:28;99581.31;;;17.97;29.23
46111;BME280;31849;55.992;37.252;2022-09-04T12:04:38;99579.25;;;18.08;28.68
46111;BME280;31849;55.992;37.252;2022-09-04T12:10:18;99576.78;;;18.31;27.94
46111;BME280;31849;55.992;37.252;2022-09-04T12:21:13;99560.78;;;18.10;28.38
46111;BME280;31849;55.992;37.252;2022-09-04T12:26:33;99560.13;;;18.02;28.48
46111;BME280;31849;55.992;37.252;2022-09-04T12:32:13;99557.34;;;18.06;27.53
46111;BME280;31849;55.992;37.252;2022-09-04T12:37:40;99547.81;;;17.74;28.06
46111;BME280;31849;55.992;37.252;2022-09-04T12:42:59;99559.19;;;17.74;28.40
46111;BME280;31849;55.992;37.252;2022-09-04T12:48:12;99563.00;;;17.64;28.71
46111;BME280;31849;55.992;37.252;2022-09-04T12:53:30;99559.88;;;17.51;28.96
46111;BME280;31849;55.992;37.252;2022-09-04T12:58:48;99553.19;;;17.39;29.31
46111;BME280;31849;55.992;37.252;2022-09-04T13:03:59;99550.03;;;16.97;29.89
46111;BME280;31849;55.992;37.252;2022-09-04T13:09:14;99544.75;;;17.30;29.77
46111;BME280;31849;55.992;37.252;2022-09-04T13:14:46;99545.84;;;17.52;29.37
46111;BME280;31849;55.992;37.252;2022-09-04T13:19:59;99537.44;;;17.39;29.20
46111;BME280;31849;55.992;37.252;2022-09-04T13:25:11;99542.97;;;16.99;29.21
46111;BME280;31849;55.992;37.252;2022-09-04T13:30:20;99544.25;;;16.49;29.43
46111;BME280;31849;55.992;37.252;2022-09-04T13:35:38;99534.25;;;16.28;29.79
46111;BME280;31849;55.992;37.252;2022-09-04T13:41:13;99538.47;;;16.35;29.54
46111;BME280;31849;55.992;37.252;2022-09-04T13:46:27;99537.13;;;16.53;29.71
46111;BME280;31849;55.992;37.252;2022-09-04T13:51:36;99540.13;;;16.39;29.45
46111;BME280;31849;55.992;37.252;2022-09-04T13:56:50;99537.63;;;16.34;29.64
46111;BME280;31849;55.992;37.252;2022-09-04T14:02:03;99542.91;;;16.31;29.81
46111;BME280;31849;55.992;37.252;2022-09-04T14:07:16;99543.84;;;16.30;30.49
46111;BME280;31849;55.992;37.252;2022-09-04T14:12:36;99542.72;;;16.41;30.15
46111;BME280;31849;55.992;37.252;2022-09-04T14:17:59;99547.19;;;16.35;30.99
46111;BME280;31849;55.992;37.252;2022-09-04T14:23:10;99541.97;;;16.34;31.02
46111;BME280;31849;55.992;37.252;2022-09-04T14:28:26;99537.19;;;16.15;31.49
46111;BME280;31849;55.992;37.252;2022-09-04T14:33:41;99541.31;;;15.88;32.35
46111;BME280;31849;55.992;37.252;2022-09-04T14:38:56;99537.56;;;15.59;33.21
46111;BME280;31849;55.992;37.252;2022-09-04T14:44:18;99538.78;;;15.43;33.29
46111;BME280;31849;55.992;37.252;2022-09-04T14:49:28;99542.31;;;15.40;33.79
46111;BME280;31849;55.992;37.252;2022-09-04T14:54:36;99535.31;;;15.41;33.91
46111;BME280;31849;55.992;37.252;2022-09-04T14:59:48;99537.81;;;15.48;33.76
46111;BME280;31849;55.992;37.252;2022-09-04T15:05:01;99538.88;;;15.38;33.93
46111;BME280;31849;55.992;37.252;2022-09-04T15:10:13;99534.06;;;15.17;34.59
46111;BME280;31849;55.992;37.252;2022-09-04T15:15:21;99530.00;;;15.02;35.16
46111;BME280;31849;55.992;37.252;2022-09-04T15:20:36;99534.44;;;14.98;34.79
46111;BME280;31849;55.992;37.252;2022-09-04T15:25:49;99533.72;;;14.90;34.94
46111;BME280;31849;55.992;37.252;2022-09-04T15:31:09;99526.47;;;14.54;35.67
46111;BME280;31849;55.992;37.252;2022-09-04T15:36:22;99534.72;;;14.33;36.44
46111;BME280;31849;55.992;37.252;2022-09-04T15:41:35;99534.97;;;14.16;36.84
46111;BME280;31849;55.992;37.252;2022-09-04T15:46:44;99531.72;;;14.00;37.26
46111;BME280;31849;55.992;37.252;2022-09-04T15:51:56;99520.88;;;13.67;38.20
46111;BME280;31849;55.992;37.252;2022-09-04T15:57:09;99531.72;;;13.41;38.69
46111;BME280;31849;55.992;37.252;2022-09-04T16:02:30;99538.09;;;13.12;39.31
46111;BME280;31849;55.992;37.252;2022-09-04T16:07:44;99541.88;;;12.86;40.88
46111;BME280;31849;55.992;37.252;2022-09-04T16:12:58;99527.31;;;12.63;41.08
46111;BME280;31849;55.992;37.252;2022-09-04T16:18:18;99541.38;;;12.47;41.91
46111;BME280;31849;55.992;37.252;2022-09-04T16:23:29;99538.97;;;12.24;42.05
46111;BME280;31849;55.992;37.252;2022-09-04T16:28:36;99546.06;;;12.00;42.84
46111;BME280;31849;55.992;37.252;2022-09-04T16:33:47;99542.81;;;11.64;44.09
46111;BME280;31849;55.992;37.252;2022-09-04T16:38:57;99542.88;;;11.47;44.43
46111;BME280;31849;55.992;37.252;2022-09-04T16:44:13;99555.97;;;11.30;45.26
46111;BME280;31849;55.992;37.252;2022-09-04T16:49:34;99561.19;;;11.25;45.60
46111;BME280;31849;55.992;37.252;2022-09-04T16:54:44;99569.91;;;11.15;45.73
46111;BME280;31849;55.992;37.252;2022-09-04T16:59:54;99563.84;;;11.08;46.11
46111;BME280;31849;55.992;37.252;2022-09-04T17:05:08;99564.72;;;11.01;46.94
46111;BME280;31849;55.992;37.252;2022-09-04T17:10:30;99573.44;;;10.94;46.54
46111;BME280;31849;55.992;37.252;2022-09-04T17:15:45;99567.38;;;10.78;47.63
46111;BME280;31849;55.992;37.252;2022-09-04T17:21:00;99578.66;;;10.71;48.05
46111;BME280;31849;55.992;37.252;2022-09-04T17:26:30;99576.94;;;10.58;47.99
46111;BME280;31849;55.992;37.252;2022-09-04T17:31:59;99576.06;;;10.37;48.81
46111;BME280;31849;55.992;37.252;2022-09-04T17:37:30;99569.09;;;10.24;48.59
46111;BME280;31849;55.992;37.252;2022-09-04T17:43:06;99570.81;;;10.14;49.20
46111;BME280;31849;55.992;37.252;2022-09-04T17:48:26;99570.81;;;10.08;49.42
46111;BME280;31849;55.992;37.252;2022-09-04T17:53:36;99568.22;;;10.00;49.87
46111;BME280;31849;55.992;37.252;2022-09-04T17:58:48;99576.00;;;9.89;50.63
46111;BME280;31849;55.992;37.252;2022-09-04T18:04:18;99573.34;;;9.77;50.54
46111;BME280;31849;55.992;37.252;2022-09-04T18:09:29;99567.28;;;9.65;50.74
46111;BME280;31849;55.992;37.252;2022-09-04T18:14:41;99572.41;;;9.50;52.39
46111;BME280;31849;55.992;37.252;2022-09-04T18:20:01;99570.69;;;9.46;51.89
46111;BME280;31849;55.992;37.252;2022-09-04T18:25:11;99566.31;;;9.40;51.90
46111;BME280;31849;55.992;37.252;2022-09-04T18:30:20;99562.81;;;9.32;52.16
46111;BME280;31849;55.992;37.252;2022-09-04T18:35:51;99562.81;;;9.32;52.50
46111;BME280;31849;55.992;37.252;2022-09-04T18:41:22;99561.03;;;9.22;52.77
46111;BME280;31849;55.992;37.252;2022-09-04T18:46:48;99557.56;;;9.15;53.15
46111;BME280;31849;55.992;37.252;2022-09-04T18:52:16;99566.16;;;9.05;54.10
46111;BME280;31849;55.992;37.252;2022-09-04T18:57:29;99560.03;;;8.95;54.74
46111;BME280;31849;55.992;37.252;2022-09-04T19:02:42;99556.53;;;8.84;54.75
46111;BME280;31849;55.992;37.252;2022-09-04T19:07:55;99548.66;;;8.71;54.50
46111;BME280;31849;55.992;37.252;2022-09-04T19:13:05;99558.13;;;8.65;55.79
46111;BME280;31849;55.992;37.252;2022-09-04T19:18:18;99554.56;;;8.52;56.28
46111;BME280;31849;55.992;37.252;2022-09-04T19:23:26;99554.44;;;8.36;56.22
46111;BME280;31849;55.992;37.252;2022-09-04T19:28:40;99543.91;;;8.16;56.61
46111;BME280;31849;55.992;37.252;2022-09-04T19:33:56;99553.41;;;8.16;56.49
46111;BME280;31849;55.992;37.252;2022-09-04T19:39:17;99549.97;;;8.18;57.59
46111;BME280;31849;55.992;37.252;2022-09-04T19:44:49;99558.63;;;8.22;56.38
46111;BME280;31849;55.992;37.252;2022-09-04T19:50:17;99542.19;;;8.15;56.44
46111;BME280;31849;55.992;37.252;2022-09-04T19:55:44;99557.75;;;8.20;57.08
46111;BME280;31849;55.992;37.252;2022-09-04T20:00:54;99561.06;;;8.05;57.66
46111;BME280;31849;55.992;37.252;2022-09-04T20:06:03;99565.34;;;8.01;57.48
46111;BME280;31849;55.992;37.252;2022-09-04T20:11:24;99567.06;;;8.01;57.39
46111;BME280;31849;55.992;37.252;2022-09-04T20:16:42;99556.63;;;7.90;57.57
46111;BME280;31849;55.992;37.252;2022-09-04T20:21:55;99554.84;;;7.84;58.81
46111;BME280;31849;55.992;37.252;2022-09-04T20:27:07;99555.66;;;7.82;58.72
46111;BME280;31849;55.992;37.252;2022-09-04T20:32:19;99553.81;;;7.71;58.63
46111;BME280;31849;55.992;37.252;2022-09-04T20:37:31;99564.97;;;7.66;58.67
46111;BME280;31849;55.992;37.252;2022-09-04T20:42:40;99561.53;;;7.67;58.72
46111;BME280;31849;55.992;37.252;2022-09-04T20:47:55;99558.94;;;7.67;58.69
46111;BME280;31849;55.992;37.252;2022-09-04T20:53:29;99561.44;;;7.56;60.77
46111;BME280;31849;55.992;37.252;2022-09-04T20:58:47;99559.66;;;7.53;60.14
46111;BME280;31849;55.992;37.252;2022-09-04T21:04:20;99562.28;;;7.55;59.29
46111;BME280;31849;55.992;37.252;2022-09-04T21:10:01;99557.16;;;7.61;59.21
46111;BME280;31849;55.992;37.252;2022-09-04T21:15:18;99554.56;;;7.61;58.81
46111;BME280;31849;55.992;37.252;2022-09-04T21:20:49;99545.09;;;7.59;59.69
46111;BME280;31849;55.992;37.252;2022-09-04T21:26:13;99546.75;;;7.56;58.99
46111;BME280;31849;55.992;37.252;2022-09-04T21:31:45;99552.75;;;7.54;59.04
46111;BME280;31849;55.992;37.252;2022-09-04T21:36:58;99556.19;;;7.48;60.35
46111;BME280;31849;55.992;37.252;2022-09-04T21:42:29;99549.25;;;7.46;60.34
46111;BME280;31849;55.992;37.252;2022-09-04T21:53:56;99551.72;;;7.36;60.63
46111;BME280;31849;55.992;37.252;2022-09-04T21:59:22;99545.63;;;7.33;60.67
46111;BME280;31849;55.992;37.252;2022-09-04T22:04:58;99546.44;;;7.29;60.68
46111;BME280;31849;55.992;37.252;2022-09-04T22:10:26;99548.97;;;7.24;60.48
46111;BME280;31849;55.992;37.252;2022-09-04T22:15:58;99537.75;;;7.24;61.45
46111;BME280;31849;55.992;37.252;2022-09-04T22:21:18;99549.75;;;7.18;61.84
46111;BME280;31849;55.992;37.252;2022-09-04T22:32:10;99540.19;;;7.10;60.99
46111;BME280;31849;55.992;37.252;2022-09-04T22:37:44;99538.41;;;7.06;61.86
46111;BME280;31849;55.992;37.252;2022-09-04T22:43:06;99535.75;;;6.99;62.46
46111;BME280;31849;55.992;37.252;2022-09-04T22:48:30;99540.84;;;6.95;61.66
46111;BME280;31849;55.992;37.252;2022-09-04T22:53:53;99555.47;;;6.93;62.23
46111;BME280;31849;55.992;37.252;2022-09-04T23:10:38;99548.34;;;6.78;62.36
46111;BME280;31849;55.992;37.252;2022-09-04T23:16:18;99547.44;;;6.73;62.79
46111;BME280;31849;55.992;37.252;2022-09-04T23:21:39;99556.88;;;6.72;62.97
46111;BME280;31849;55.992;37.252;2022-09-04T23:27:27;99537.84;;;6.65;63.02
46111;BME280;31849;55.992;37.252;2022-09-04T23:33:14;99533.41;;;6.57;63.15
46111;BME280;31849;55.992;37.252;2022-09-04T23:44:37;99545.47;;;6.56;63.07
46111;BME280;31849;55.992;37.252;2022-09-04T23:49:54;99544.50;;;6.49;64.28
46111;BME280;31849;55.992;37.252;2022-09-04T23:55:12;99545.31;;;6.47;64.35
